Time;durP1;ratioP1;P1;durP2;ratioP2;P2;SDS_P1;SDS_P2;PMS_P1;PMS_P2;Temp;Humidity;BMP_temperature;BMP_pressure;BME280_temperature;BME280_humidity;BME280_pressure;Samples;Min_cycle;Max_cycle;Signal;HPM_P1;HPM_P2
2021/06/17 00:01:12;;;;;;;6.23;4.60;;;;;;;19.44;69.45;100551.77;1788585;80;21240;-77
2021/06/17 00:03:39;;;;;;;7.03;4.90;;;;;;;19.43;69.32;100546.68;1784056;79;21597;-76
2021/06/17 00:06:06;;;;;;;6.13;4.10;;;;;;;19.42;69.23;100547.24;1787167;79;21054;-77
2021/06/17 00:08:32;;;;;;;9.13;4.30;;;;;;;19.39;69.14;100541.10;1785172;80;21042;-76
2021/06/17 00:11:00;;;;;;;7.13;4.60;;;;;;;19.36;69.12;100534.96;1789394;80;21041;-77
2021/06/17 00:13:28;;;;;;;7.23;4.63;;;;;;;19.31;69.16;100534.30;1775246;79;21086;-77
2021/06/17 00:15:58;;;;;;;8.00;4.50;;;;;;;19.26;69.27;100533.12;1781101;80;22158;-77
2021/06/17 00:18:25;;;;;;;5.43;4.00;;;;;;;19.19;69.41;100524.90;1774149;80;21581;-77
2021/06/17 00:20:52;;;;;;;8.07;4.60;;;;;;;19.14;69.50;100520.17;1772560;80;21046;-76
2021/06/17 00:23:18;;;;;;;7.13;3.90;;;;;;;19.08;69.62;100524.14;1786750;79;22622;-77
2021/06/17 00:25:45;;;;;;;8.97;4.10;;;;;;;19.02;69.75;100532.98;1779030;79;21097;-79
2021/06/17 00:28:12;;;;;;;7.53;4.27;;;;;;;18.98;69.91;100529.28;1784609;80;21521;-78
2021/06/17 00:30:39;;;;;;;6.03;4.13;;;;;;;18.93;69.99;100525.39;1788366;79;21280;-78
2021/06/17 00:33:06;;;;;;;6.10;4.20;;;;;;;18.90;70.11;100529.52;1785639;79;21625;-79
2021/06/17 00:35:33;;;;;;;5.00;4.10;;;;;;;18.86;70.20;100528.55;1780589;80;21763;-77
2021/06/17 00:38:00;;;;;;;6.10;3.93;;;;;;;18.83;70.27;100525.11;1788029;79;21079;-76
2021/06/17 00:40:28;;;;;;;5.93;4.00;;;;;;;18.80;70.37;100536.56;1778204;80;21561;-77
2021/06/17 00:42:55;;;;;;;7.03;4.17;;;;;;;18.77;70.44;100543.16;1780950;79;21046;-75
2021/06/17 00:45:32;;;;;;;6.70;3.80;;;;;;;18.73;70.50;100543.77;1779265;80;21079;-77
2021/06/17 00:47:59;;;;;;;6.20;4.37;;;;;;;18.69;70.59;100542.78;1790946;80;21194;-78
2021/06/17 00:50:29;;;;;;;6.63;4.10;;;;;;;18.66;70.78;100549.37;1777804;80;21568;-79
2021/06/17 00:52:56;;;;;;;6.83;4.07;;;;;;;18.63;70.96;100549.98;1778876;80;21044;-76
2021/06/17 00:55:23;;;;;;;5.40;3.60;;;;;;;18.61;71.13;100549.49;1776248;79;21018;-78
2021/06/17 00:57:50;;;;;;;6.00;3.90;;;;;;;18.59;71.43;100546.28;1787225;80;21026;-77
2021/06/17 01:00:18;;;;;;;5.67;3.77;;;;;;;18.57;71.56;100542.55;1782702;79;21105;-76
2021/06/17 01:02:45;;;;;;;6.83;4.37;;;;;;;18.57;71.65;100540.41;1775859;79;21647;-76
2021/06/17 01:05:17;;;;;;;6.73;4.53;;;;;;;18.55;71.65;100539.91;1777804;79;21054;-77
2021/06/17 01:07:49;;;;;;;8.43;5.00;;;;;;;18.54;71.68;100539.67;1775700;79;21074;-77
2021/06/17 01:10:38;;;;;;;5.73;4.00;;;;;;;18.51;71.74;100539.73;1788177;80;21184;-77
2021/06/17 01:13:19;;;;;;;7.03;4.80;;;;;;;18.50;71.85;100540.29;1747285;80;21067;-78
2021/06/17 01:16:07;;;;;;;7.23;4.83;;;;;;;18.47;71.86;100536.85;1775661;79;21604;-79
2021/06/17 01:18:38;;;;;;;7.23;4.60;;;;;;;18.47;71.98;100543.62;1783709;79;37516;-78
2021/06/17 01:21:11;;;;;;;8.27;4.97;;;;;;;18.45;71.95;100547.73;1781335;79;21061;-77
2021/06/17 01:24:12;;;;;;;7.13;4.60;;;;;;;18.44;71.96;100556.41;1782583;80;21751;-78
2021/06/17 01:27:20;;;;;;;6.47;4.20;;;;;;;18.44;71.85;100552.34;1775162;79;21081;-76
2021/06/17 01:29:52;;;;;;;6.63;4.27;;;;;;;18.43;71.79;100545.91;1787174;80;21193;-79
2021/06/17 01:32:20;;;;;;;6.63;4.07;;;;;;;18.39;71.82;100547.61;1788841;80;21037;-78
2021/06/17 01:34:48;;;;;;;6.13;4.07;;;;;;;18.34;71.77;100558.02;1753364;79;21062;-78
2021/06/17 01:37:15;;;;;;;6.30;3.90;;;;;;;18.32;71.78;100572.39;1780344;80;21042;-76
2021/06/17 01:39:41;;;;;;;7.07;4.27;;;;;;;18.28;71.81;100572.77;1774825;80;21130;-76
2021/06/17 01:42:09;;;;;;;5.90;4.23;;;;;;;18.27;71.83;100583.34;1785319;80;21129;-76
2021/06/17 01:44:36;;;;;;;6.83;4.40;;;;;;;18.27;71.87;100583.34;1780520;79;21509;-76
2021/06/17 01:47:04;;;;;;;6.73;4.13;;;;;;;18.26;71.92;100584.43;1777621;79;21561;-77
2021/06/17 01:49:31;;;;;;;5.33;4.13;;;;;;;18.23;71.95;100587.22;1780664;79;21095;-78
2021/06/17 01:51:58;;;;;;;5.20;4.20;;;;;;;18.24;71.95;100590.72;1787946;80;21070;-78
2021/06/17 01:54:26;;;;;;;6.00;4.20;;;;;;;18.25;71.99;100600.41;1783276;79;21132;-79
2021/06/17 01:56:54;;;;;;;8.83;4.10;;;;;;;18.25;71.97;100599.06;1777264;79;21007;-79
2021/06/17 01:59:22;;;;;;;6.53;4.00;;;;;;;18.26;71.96;100602.00;1793915;79;21157;-79
2021/06/17 02:01:51;;;;;;;5.70;3.80;;;;;;;18.25;71.94;100603.91;1790063;78;21043;-78
2021/06/17 02:04:20;;;;;;;6.90;4.10;;;;;;;18.26;71.95;100601.47;1742997;80;21023;-77
2021/06/17 02:06:49;;;;;;;6.25;3.87;;;;;;;18.28;71.90;100602.50;1774139;80;20992;-77
2021/06/17 02:09:16;;;;;;;7.47;4.10;;;;;;;18.30;71.91;100610.33;1797299;79;21011;-78
2021/06/17 02:11:42;;;;;;;5.83;3.90;;;;;;;18.31;71.82;100609.21;1794331;79;21043;-78
2021/06/17 02:14:11;;;;;;;5.97;3.63;;;;;;;18.32;71.76;100608.09;1750883;80;21053;-78
2021/06/17 02:16:41;;;;;;;4.80;3.87;;;;;;;18.32;71.77;100606.74;1771418;79;21054;-78
2021/06/17 02:19:10;;;;;;;5.93;4.10;;;;;;;18.31;71.75;100601.09;1769890;80;21124;-79
2021/06/17 02:21:37;;;;;;;7.13;4.10;;;;;;;18.31;71.70;100599.19;1766267;79;22296;-79
2021/06/17 02:24:04;;;;;;;6.67;4.10;;;;;;;18.32;71.69;100599.98;1765028;80;21087;-79
2021/06/17 02:26:31;;;;;;;9.57;3.97;;;;;;;18.32;71.71;100599.98;1761104;80;21074;-77
2021/06/17 02:29:01;;;;;;;5.83;4.00;;;;;;;18.33;71.71;100601.05;1798116;79;21273;-79
2021/06/17 02:31:30;;;;;;;5.87;4.00;;;;;;;18.33;71.76;100598.34;1786920;79;21054;-80
2021/06/17 02:33:57;;;;;;;6.20;4.10;;;;;;;18.34;71.83;100597.22;1762698;80;21051;-80
2021/06/17 02:36:26;;;;;;;7.03;3.63;;;;;;;18.35;71.85;100593.96;1652656;80;9999859;-79
2021/06/17 02:38:57;;;;;;;6.07;4.37;;;;;;;18.32;71.91;100592.66;1776227;79;21043;-79
2021/06/17 02:41:23;;;;;;;5.53;4.15;;;;;;;18.31;72.00;100588.38;1770484;80;22039;-78
2021/06/17 02:43:56;;;;;;;5.37;4.20;;;;;;;18.32;72.05;100590.52;1747363;80;21633;-79
2021/06/17 02:46:23;;;;;;;5.97;4.03;;;;;;;18.33;72.22;100598.34;1789508;79;21062;-78
2021/06/17 02:48:52;;;;;;;6.73;4.20;;;;;;;18.35;72.48;100601.52;1799241;78;21072;-80
2021/06/17 02:51:20;;;;;;;6.43;3.90;;;;;;;18.36;72.65;100611.25;1769684;80;21014;-79
2021/06/17 02:53:48;;;;;;;6.37;4.73;;;;;;;18.37;72.74;100618.25;1774708;80;21180;-79
2021/06/17 02:56:25;;;;;;;7.17;4.63;;;;;;;18.37;72.84;100614.19;1802338;78;21349;-79
2021/06/17 02:59:30;;;;;;;5.57;4.30;;;;;;;18.37;72.90;100619.59;1755389;80;21054;-79
2021/06/17 03:02:15;;;;;;;6.23;4.20;;;;;;;18.39;72.87;100622.77;1771651;79;21023;-80
2021/06/17 03:04:54;;;;;;;7.60;4.20;;;;;;;18.43;72.77;100626.48;1783757;79;21090;-80
2021/06/17 03:07:25;;;;;;;6.28;3.75;;;;;;;18.49;72.60;100640.66;1787325;79;21038;-79
2021/06/17 03:09:58;;;;;;;9.03;3.98;;;;;;;18.55;72.31;100645.41;1767213;80;21574;-80
2021/06/17 03:12:26;;;;;;;5.78;4.10;;;;;;;18.61;72.18;100646.32;1776322;79;21023;-79
2021/06/17 03:14:55;;;;;;;5.27;3.97;;;;;;;18.69;72.01;100643.41;1771399;79;21039;-78
2021/06/17 03:17:23;;;;;;;8.13;4.07;;;;;;;18.76;71.77;100646.53;1791534;79;21094;-79
2021/06/17 03:19:54;;;;;;;6.30;4.00;;;;;;;18.81;71.56;100646.39;1771854;80;21125;-79
2021/06/17 03:22:23;;;;;;;5.47;3.80;;;;;;;18.87;71.38;100655.98;1735365;80;21078;-79
2021/06/17 03:24:50;;;;;;;6.67;4.50;;;;;;;18.94;71.27;100654.98;1782467;78;21070;-79
2021/06/17 03:27:17;;;;;;;10.90;4.63;;;;;;;18.99;71.16;100648.65;1760240;79;21048;-79
2021/06/17 03:29:47;;;;;;;7.97;4.10;;;;;;;19.06;71.09;100652.27;1780780;79;21508;-79
2021/06/17 03:32:15;;;;;;;7.17;4.23;;;;;;;19.12;70.83;100655.88;1786129;78;21089;-80
2021/06/17 03:34:44;;;;;;;6.90;4.53;;;;;;;19.19;70.73;100652.72;1784880;79;21027;-78
2021/06/17 03:37:12;;;;;;;5.90;3.80;;;;;;;19.26;70.49;100653.63;1736300;80;21058;-79
2021/06/17 03:39:38;;;;;;;6.47;4.20;;;;;;;19.32;70.31;100657.79;1779091;78;21023;-78
2021/06/17 03:42:08;;;;;;;6.07;4.10;;;;;;;19.38;70.29;100664.11;1780244;79;21296;-78
2021/06/17 03:44:35;;;;;;;5.27;3.80;;;;;;;19.46;70.25;100672.02;1785853;78;21137;-79
2021/06/17 03:47:03;;;;;;;6.93;3.90;;;;;;;19.57;70.02;100676.02;1779368;79;21097;-80
2021/06/17 03:49:31;;;;;;;5.63;3.40;;;;;;;19.64;69.77;100678.30;1776690;79;20998;-79
2021/06/17 03:51:58;;;;;;;5.60;3.53;;;;;;;19.71;69.66;100684.61;1790483;79;21533;-78
2021/06/17 03:54:27;;;;;;;5.57;3.60;;;;;;;19.76;69.52;100683.12;1782947;79;21185;-78
2021/06/17 03:56:58;;;;;;;5.53;3.93;;;;;;;19.83;69.47;100676.11;1786031;78;21813;-78
2021/06/17 03:59:31;;;;;;;6.17;4.08;;;;;;;19.92;69.34;100684.27;1776683;78;21562;-79
2021/06/17 04:01:58;;;;;;;5.60;3.60;;;;;;;20.01;68.91;100682.94;1787650;78;21081;-79
2021/06/17 04:04:25;;;;;;;5.67;3.60;;;;;;;20.08;68.46;100683.27;1784342;80;21036;-80
2021/06/17 04:06:53;;;;;;;6.60;3.87;;;;;;;20.16;68.45;100678.39;1789173;78;21542;-79
2021/06/17 04:09:28;;;;;;;5.77;3.80;;;;;;;20.29;68.48;100682.86;1776274;78;21737;-79
2021/06/17 04:11:56;;;;;;;7.03;4.63;;;;;;;20.45;67.91;100677.75;1774223;80;21038;-79
2021/06/17 04:14:23;;;;;;;5.30;3.60;;;;;;;20.62;67.50;100681.03;1776876;78;21073;-79
2021/06/17 04:16:51;;;;;;;5.73;3.77;;;;;;;20.76;66.95;100679.49;1751851;80;21058;-79
2021/06/17 04:19:25;;;;;;;5.13;3.47;;;;;;;20.85;66.58;100674.84;1778282;78;21129;-78
2021/06/17 04:21:54;;;;;;;5.20;3.40;;;;;;;20.84;66.02;100672.70;1776043;79;21958;-78
2021/06/17 04:24:23;;;;;;;5.80;3.70;;;;;;;20.80;66.34;100669.05;1778478;78;20996;-84
2021/06/17 04:26:52;;;;;;;4.97;3.40;;;;;;;20.79;66.51;100667.42;1772022;79;21101;-83
2021/06/17 04:29:19;;;;;;;4.63;3.20;;;;;;;20.83;66.62;100664.33;1794231;78;21694;-83
2021/06/17 04:31:50;;;;;;;5.90;3.77;;;;;;;20.93;66.63;100669.97;1779590;78;21019;-83
2021/06/17 04:34:18;;;;;;;3.90;3.00;;;;;;;20.98;66.06;100671.70;1770668;80;21109;-83
2021/06/17 04:36:45;;;;;;;6.47;4.17;;;;;;;21.02;65.84;100672.64;1776131;78;21015;-78
2021/06/17 04:39:12;;;;;;;5.97;3.77;;;;;;;21.02;65.54;100676.72;1786168;78;21173;-73
2021/06/17 04:41:39;;;;;;;5.33;3.40;;;;;;;21.02;65.43;100679.43;1777962;78;21101;-72
2021/06/17 04:44:07;;;;;;;5.20;3.80;;;;;;;21.01;65.42;100681.92;1779816;78;21073;-74
2021/06/17 04:46:35;;;;;;;4.90;3.70;;;;;;;20.98;65.58;100680.64;1777218;78;21140;-73
2021/06/17 04:49:03;;;;;;;5.47;3.50;;;;;;;21.00;65.68;100681.13;1780500;80;21493;-73
2021/06/17 04:51:33;;;;;;;5.00;3.60;;;;;;;21.08;65.78;100681.65;1785450;78;21501;-73
2021/06/17 04:53:59;;;;;;;5.00;3.47;;;;;;;21.18;65.69;100677.78;1783048;80;21055;-73
2021/06/17 04:56:26;;;;;;;5.47;3.87;;;;;;;21.34;65.48;100686.77;1772344;78;21682;-72
2021/06/17 04:58:53;;;;;;;4.67;3.37;;;;;;;21.48;65.01;100692.80;1781443;80;22004;-72
2021/06/17 05:01:19;;;;;;;7.87;3.50;;;;;;;21.62;64.80;100689.84;1777182;79;21054;-72
2021/06/17 05:03:48;;;;;;;4.57;3.73;;;;;;;21.78;64.58;100689.51;1776567;78;21030;-73
2021/06/17 05:06:19;;;;;;;6.47;3.40;;;;;;;21.92;63.70;100687.36;1785433;79;21014;-72
2021/06/17 05:11:30;;;;;;;6.03;3.60;;;;;;;22.08;63.56;100693.55;1775796;79;21184;-72
2021/06/17 05:14:01;;;;;;;6.73;3.40;;;;;;;22.18;63.36;100702.17;1784606;77;21039;-72
2021/06/17 05:16:28;;;;;;;6.47;3.83;;;;;;;22.25;62.86;100705.72;1785859;78;21022;-72
2021/06/17 05:18:55;;;;;;;6.23;3.77;;;;;;;22.28;62.62;100706.95;1775001;79;20990;-73
2021/06/17 05:21:22;;;;;;;5.23;3.37;;;;;;;22.29;62.51;100707.20;1769992;79;21075;-73
2021/06/17 05:23:49;;;;;;;6.03;3.70;;;;;;;22.26;62.25;100705.16;1780502;78;21104;-72
2021/06/17 05:26:16;;;;;;;6.17;3.57;;;;;;;22.23;62.62;100712.05;1788901;78;21358;-71
2021/06/17 05:28:42;;;;;;;6.73;3.73;;;;;;;22.26;62.62;100713.31;1786784;78;21074;-73
2021/06/17 05:31:10;;;;;;;6.93;3.53;;;;;;;22.31;62.63;100711.73;1787638;78;21517;-72
2021/06/17 05:33:37;;;;;;;4.80;3.40;;;;;;;22.39;62.46;100717.69;1780912;78;21011;-72
2021/06/17 05:36:05;;;;;;;7.10;4.17;;;;;;;22.46;62.15;100725.55;1787465;79;21135;-72
2021/06/17 05:38:33;;;;;;;5.17;3.87;;;;;;;22.54;62.35;100728.52;1768078;80;22278;-73
2021/06/17 05:41:01;;;;;;;5.50;3.63;;;;;;;22.58;62.06;100726.17;1774485;78;21122;-71
2021/06/17 05:43:27;;;;;;;6.10;3.80;;;;;;;22.68;61.77;100731.78;1779858;80;21125;-72
2021/06/17 05:45:54;;;;;;;6.10;3.60;;;;;;;22.74;61.21;100730.98;1782671;78;21045;-72
2021/06/17 05:48:20;;;;;;;6.87;3.83;;;;;;;22.77;61.44;100727.59;1770674;80;21147;-71
2021/06/17 05:50:47;;;;;;;6.83;3.67;;;;;;;22.84;61.08;100725.94;1781065;78;21101;-73
2021/06/17 05:53:14;;;;;;;5.17;3.57;;;;;;;22.93;61.08;100727.23;1782137;78;21568;-72
2021/06/17 05:55:40;;;;;;;7.53;4.03;;;;;;;23.01;60.99;100731.02;1768017;80;21059;-73
2021/06/17 05:58:07;;;;;;;4.43;3.47;;;;;;;23.11;60.74;100731.37;1767198;79;21016;-73
2021/06/17 06:00:35;;;;;;;7.37;3.60;;;;;;;23.22;60.17;100730.94;1759420;80;21104;-73
2021/06/17 06:03:02;;;;;;;4.87;3.43;;;;;;;23.34;60.19;100730.95;1773093;79;21038;-72
2021/06/17 06:05:29;;;;;;;6.17;3.67;;;;;;;23.44;60.07;100731.87;1766187;80;21055;-72
2021/06/17 06:08:03;;;;;;;6.33;3.90;;;;;;;23.51;59.88;100734.04;1757676;79;21046;-73
2021/06/17 06:10:30;;;;;;;6.77;4.07;;;;;;;23.55;59.15;100739.03;1772667;79;21025;-72
2021/06/17 06:12:57;;;;;;;4.87;3.57;;;;;;;23.58;58.99;100734.27;1757281;79;21146;-73
2021/06/17 06:15:27;;;;;;;6.07;3.90;;;;;;;23.59;58.66;100731.21;1781888;78;21081;-73
2021/06/17 06:17:53;;;;;;;6.33;3.87;;;;;;;23.57;58.68;100733.47;1782678;78;21077;-73
2021/06/17 06:20:20;;;;;;;4.83;3.97;;;;;;;23.63;58.95;100735.41;1783933;78;21074;-73
2021/06/17 06:22:47;;;;;;;6.20;3.80;;;;;;;23.70;58.85;100734.30;1777692;79;21046;-73
2021/06/17 06:25:14;;;;;;;6.07;3.70;;;;;;;23.78;58.65;100729.86;1782647;79;21040;-73
2021/06/17 06:27:41;;;;;;;7.37;3.80;;;;;;;23.87;58.79;100735.42;1772071;80;21119;-72
2021/06/17 06:30:09;;;;;;;6.53;3.50;;;;;;;23.92;58.03;100727.56;1784571;79;21105;-72
2021/06/17 06:32:36;;;;;;;6.40;3.90;;;;;;;23.92;57.87;100727.56;1784390;79;21612;-73
2021/06/17 06:35:06;;;;;;;6.97;3.80;;;;;;;23.93;58.02;100732.47;1752116;79;21085;-73
2021/06/17 06:37:32;;;;;;;7.37;3.70;;;;;;;23.98;58.03;100734.95;1788234;80;21138;-73
2021/06/17 06:39:59;;;;;;;5.50;3.90;;;;;;;24.05;58.32;100735.98;1771417;79;21027;-74
2021/06/17 06:42:25;;;;;;;5.20;3.50;;;;;;;24.14;57.89;100744.59;1780037;78;21583;-72
2021/06/17 06:44:54;;;;;;;5.57;3.50;;;;;;;24.17;56.90;100739.24;1778850;80;21054;-74
2021/06/17 06:47:21;;;;;;;7.90;3.90;;;;;;;24.14;57.40;100733.68;1785835;78;21261;-74
2021/06/17 06:49:48;;;;;;;5.60;3.60;;;;;;;24.22;57.47;100735.47;1777055;79;22006;-74
2021/06/17 06:52:16;;;;;;;5.20;3.40;;;;;;;24.31;57.26;100734.77;1788866;78;21023;-74
2021/06/17 06:54:42;;;;;;;5.00;3.30;;;;;;;24.36;56.38;100733.17;1780906;79;21157;-73
2021/06/17 06:57:09;;;;;;;7.43;3.63;;;;;;;24.38;56.74;100739.64;1773315;79;21008;-72
2021/06/17 06:59:36;;;;;;;6.60;3.70;;;;;;;24.41;56.79;100735.67;1771971;80;21038;-73
2021/06/17 07:02:03;;;;;;;5.50;3.73;;;;;;;24.54;56.69;100728.24;1777930;79;21855;-73
2021/06/17 07:04:30;;;;;;;6.40;3.40;;;;;;;24.65;56.63;100734.03;1765733;79;21078;-72
2021/06/17 07:06:56;;;;;;;5.10;3.50;;;;;;;24.77;56.01;100736.10;1775583;78;21087;-74
2021/06/17 07:09:23;;;;;;;4.73;3.10;;;;;;;24.84;55.67;100736.87;1776445;80;20991;-73
2021/06/17 07:11:50;;;;;;;4.87;3.00;;;;;;;24.87;55.13;100743.58;1790901;79;21036;-73
2021/06/17 07:14:20;;;;;;;6.30;3.33;;;;;;;24.86;55.48;100739.27;1760423;80;21150;-73
2021/06/17 07:16:47;;;;;;;4.60;3.17;;;;;;;24.90;55.25;100738.20;1767847;80;21041;-73
2021/06/17 07:19:13;;;;;;;4.93;3.17;;;;;;;24.93;54.49;100747.66;1755812;80;21065;-72
2021/06/17 07:21:40;;;;;;;4.77;2.90;;;;;;;24.90;54.95;100749.14;1786803;78;21095;-74
2021/06/17 07:24:07;;;;;;;5.27;3.40;;;;;;;24.97;55.80;100748.53;1798569;78;21106;-73
2021/06/17 07:26:33;;;;;;;5.10;3.33;;;;;;;25.13;55.44;100752.70;1789256;79;21928;-74
2021/06/17 07:29:00;;;;;;;4.83;3.30;;;;;;;25.31;55.32;100748.49;1795307;77;21082;-74
2021/06/17 07:31:28;;;;;;;6.03;3.43;;;;;;;25.41;54.02;100750.70;1790723;78;21079;-74
2021/06/17 07:33:54;;;;;;;6.13;3.17;;;;;;;25.43;54.06;100745.65;1796636;78;21656;-73
2021/06/17 07:36:22;;;;;;;7.37;3.83;;;;;;;25.47;53.92;100749.87;1792350;79;21175;-75
2021/06/17 07:38:49;;;;;;;6.33;3.40;;;;;;;25.42;53.51;100750.13;1772335;79;21573;-72
2021/06/17 07:41:16;;;;;;;6.73;3.70;;;;;;;25.36;53.65;100759.15;1788132;79;21062;-73
2021/06/17 07:43:43;;;;;;;3.60;2.80;;;;;;;25.36;54.17;100757.78;1779971;78;21042;-73
2021/06/17 07:46:10;;;;;;;4.50;3.33;;;;;;;25.41;54.22;100746.59;1763673;80;21452;-73
2021/06/17 07:48:38;;;;;;;5.97;3.30;;;;;;;25.43;53.80;100753.85;1778824;80;21055;-74
2021/06/17 07:51:07;;;;;;;6.77;3.30;;;;;;;25.45;53.98;100754.31;1770782;79;21078;-72
2021/06/17 07:53:34;;;;;;;7.17;3.77;;;;;;;25.44;54.17;100751.36;1775108;79;21134;-73
2021/06/17 07:56:01;;;;;;;5.70;3.80;;;;;;;25.48;54.36;100756.34;1770205;79;21558;-74
2021/06/17 07:58:28;;;;;;;5.63;3.57;;;;;;;25.59;53.53;100759.33;1781582;79;21034;-73
2021/06/17 08:00:54;;;;;;;7.43;3.97;;;;;;;25.63;53.45;100766.25;1799099;79;21004;-74
2021/06/17 08:03:21;;;;;;;4.83;3.47;;;;;;;25.65;53.40;100762.59;1771667;79;21765;-72
2021/06/17 08:05:47;;;;;;;5.50;3.47;;;;;;;25.70;53.29;100766.45;1796981;79;21110;-74
2021/06/17 08:08:15;;;;;;;3.80;3.03;;;;;;;25.75;53.34;100766.16;1766984;80;20994;-73
2021/06/17 08:10:41;;;;;;;7.00;3.90;;;;;;;25.78;53.43;100766.82;1775200;79;21518;-73
2021/06/17 08:13:08;;;;;;;6.07;3.50;;;;;;;25.87;53.46;100769.41;1773714;79;21027;-73
2021/06/17 08:15:37;;;;;;;6.53;3.20;;;;;;;25.95;52.75;100765.09;1758651;80;21815;-73
2021/06/17 08:18:05;;;;;;;6.30;3.63;;;;;;;26.02;52.90;100775.41;1764707;79;21093;-73
2021/06/17 08:20:32;;;;;;;4.77;3.53;;;;;;;26.10;52.57;100780.48;1777121;80;21052;-74
2021/06/17 08:22:59;;;;;;;6.43;3.97;;;;;;;26.06;52.59;100786.44;1776252;79;21288;-74
2021/06/17 08:25:26;;;;;;;6.40;3.50;;;;;;;26.06;52.63;100780.96;1791057;79;21034;-74
2021/06/17 08:27:53;;;;;;;7.57;3.50;;;;;;;26.17;53.48;100777.33;1762350;80;21230;-73
2021/06/17 08:30:22;;;;;;;8.00;3.80;;;;;;;26.24;52.22;100771.21;1786255;78;21062;-72
2021/06/17 08:32:49;;;;;;;6.10;3.13;;;;;;;26.27;52.03;100775.98;1771655;79;21482;-72
2021/06/17 08:35:16;;;;;;;7.23;3.70;;;;;;;26.26;52.01;100768.92;1777280;78;21081;-73
2021/06/17 08:37:43;;;;;;;6.10;3.10;;;;;;;26.28;52.26;100769.92;1788810;79;21083;-72
2021/06/17 08:40:10;;;;;;;5.67;3.37;;;;;;;26.40;52.30;100777.44;1769293;78;21094;-73
2021/06/17 08:42:37;;;;;;;9.63;3.83;;;;;;;26.51;51.63;100768.09;1785728;78;21046;-73
2021/06/17 08:45:07;;;;;;;6.00;3.37;;;;;;;26.56;51.67;100768.40;1789247;78;21054;-73
2021/06/17 08:47:35;;;;;;;5.17;3.30;;;;;;;26.66;51.59;100774.09;1793281;80;21711;-73
2021/06/17 08:50:08;;;;;;;5.63;3.30;;;;;;;26.75;50.73;100780.73;1790143;78;21359;-73
2021/06/17 08:52:39;;;;;;;4.87;2.97;;;;;;;26.80;51.36;100781.00;1758912;80;21308;-72
2021/06/17 08:55:21;;;;;;;6.72;3.47;;;;;;;26.92;51.73;100780.86;1778361;78;21026;-72
2021/06/17 08:57:51;;;;;;;4.63;3.27;;;;;;;27.02;49.86;100776.15;1778273;78;21042;-73
2021/06/17 09:00:28;;;;;;;6.43;3.40;;;;;;;27.01;49.34;100780.03;1784556;78;21088;-74
2021/06/17 09:03:06;;;;;;;4.03;3.20;;;;;;;27.08;49.76;100771.14;1785784;79;21408;-73
2021/06/17 09:05:37;;;;;;;6.97;3.90;;;;;;;27.16;49.09;100771.53;1775201;78;21573;-72
2021/06/17 09:08:05;;;;;;;;;;;;;;;27.24;49.04;100782.04;1773590;79;20968;-72
2021/06/17 09:10:31;;;;;;;6.77;3.20;;;;;;;27.32;47.99;100776.33;1786613;78;20182;-73
2021/06/17 09:13:01;;;;;;;6.87;3.30;;;;;;;27.36;47.98;100780.50;1751539;80;21125;-73
2021/06/17 09:15:52;;;;;;;3.87;3.10;;;;;;;27.41;47.22;100784.32;1778380;79;21029;-73
2021/06/17 09:18:31;;;;;;;4.22;3.05;;;;;;;27.49;47.12;100783.85;1784243;78;21082;-71
2021/06/17 09:21:05;;;;;;;4.80;3.10;;;;;;;27.67;45.70;100778.64;1782255;79;21471;-72
2021/06/17 09:23:41;;;;;;;7.37;3.27;;;;;;;27.85;46.30;100779.75;1800182;78;21036;-72
2021/06/17 09:26:17;;;;;;;4.77;2.97;;;;;;;28.01;46.74;100782.34;1768405;80;21510;-72
2021/06/17 09:29:01;;;;;;;4.57;2.80;;;;;;;28.01;45.99;100785.87;1768729;79;21736;-73
2021/06/17 09:31:41;;;;;;;8.87;3.13;;;;;;;27.93;45.27;100773.78;1797512;79;21617;-73
2021/06/17 09:34:14;;;;;;;4.78;3.17;;;;;;;27.76;45.00;100781.38;1768005;79;21185;-72
2021/06/17 09:36:42;;;;;;;5.43;3.00;;;;;;;27.63;45.07;100781.33;1791200;78;21085;-73
2021/06/17 09:39:16;;;;;;;4.60;2.83;;;;;;;27.70;45.03;100777.91;1743439;80;21062;-72
2021/06/17 09:41:50;;;;;;;5.57;2.80;;;;;;;27.72;44.46;100779.13;1806377;79;21628;-73
2021/06/17 09:44:35;;;;;;;5.17;3.03;;;;;;;27.77;44.54;100776.12;1801022;78;21655;-72
2021/06/17 09:47:22;;;;;;;6.10;2.90;;;;;;;27.86;45.92;100781.91;1780263;79;21070;-73
2021/06/17 09:49:46;;;;;;;5.83;2.90;;;;;;;28.05;45.48;100774.36;1776003;79;21022;-72
2021/06/17 09:52:14;;;;;;;4.67;2.77;;;;;;;28.16;44.58;100774.50;1791939;78;21554;-72
2021/06/17 09:54:44;;;;;;;5.27;2.70;;;;;;;28.07;44.33;100780.88;1777898;79;21137;-75
2021/06/17 09:57:18;;;;;;;3.70;2.70;;;;;;;27.95;44.30;100783.23;1776091;78;22097;-74
2021/06/17 09:59:53;;;;;;;5.07;3.10;;;;;;;27.87;45.32;100784.86;1782558;79;21025;-72
2021/06/17 10:02:35;;;;;;;4.40;2.87;;;;;;;27.80;44.27;100782.22;1779063;78;21054;-73
2021/06/17 10:05:21;;;;;;;6.30;2.93;;;;;;;27.81;45.05;100781.08;1774371;79;21007;-73
2021/06/17 10:07:50;;;;;;;7.03;3.20;;;;;;;27.92;44.57;100777.70;1786998;78;21054;-73
2021/06/17 10:10:22;;;;;;;5.23;2.80;;;;;;;27.96;44.46;100783.44;1771062;80;21328;-72
2021/06/17 10:12:48;;;;;;;5.35;2.98;;;;;;;27.96;44.21;100782.06;1765037;80;21568;-73
2021/06/17 10:15:15;;;;;;;5.97;3.00;;;;;;;27.92;44.52;100776.33;1776500;79;21043;-72
2021/06/17 10:17:42;;;;;;;5.30;3.10;;;;;;;27.92;45.05;100772.99;1785120;78;21106;-73
2021/06/17 10:20:11;;;;;;;5.17;2.90;;;;;;;27.94;44.83;100779.50;1750115;78;21070;-73
2021/06/17 10:22:39;;;;;;;4.43;2.93;;;;;;;27.82;44.98;100770.30;1786583;78;21924;-73
2021/06/17 10:25:08;;;;;;;5.33;3.23;;;;;;;27.73;44.80;100768.36;1784733;78;21577;-72
2021/06/17 10:27:38;;;;;;;5.00;3.30;;;;;;;27.64;44.51;100765.10;1781704;80;21078;-72
2021/06/17 10:30:07;;;;;;;4.70;3.00;;;;;;;27.63;45.20;100766.23;1768928;78;21085;-73
2021/06/17 10:32:38;;;;;;;3.97;2.90;;;;;;;27.69;45.48;100758.50;1764631;79;21200;-73
2021/06/17 10:35:05;;;;;;;3.70;3.05;;;;;;;27.70;45.36;100754.00;1771255;80;21155;-74
2021/06/17 10:37:34;;;;;;;4.63;2.90;;;;;;;27.69;45.62;100765.36;1783999;78;21047;-73
2021/06/17 10:40:16;;;;;;;4.57;3.00;;;;;;;27.67;44.54;100749.24;1765571;80;21090;-72
2021/06/17 10:42:48;;;;;;;6.70;3.10;;;;;;;27.59;44.77;100744.23;1781918;78;21087;-71
2021/06/17 10:45:19;;;;;;;3.40;2.80;;;;;;;27.59;44.63;100746.19;1783096;78;21121;-73
2021/06/17 10:47:51;;;;;;;;;;;;;;;27.61;45.37;100734.28;1783885;80;21137;-72
2021/06/17 10:50:26;;;;;;;5.53;3.17;;;;;;;27.76;44.68;100733.34;1787407;78;20172;-73
2021/06/17 10:52:56;;;;;;;4.20;2.90;;;;;;;27.85;45.53;100728.97;1769219;79;21102;-73
2021/06/17 10:55:25;;;;;;;4.20;3.30;;;;;;;28.00;45.09;100725.83;1723654;78;21129;-73
2021/06/17 10:57:54;;;;;;;7.00;2.90;;;;;;;28.17;44.95;100723.92;1774058;79;21059;-73
2021/06/17 11:00:30;;;;;;;4.97;3.47;;;;;;;28.34;44.83;100732.18;1784915;78;21125;-73
2021/06/17 11:03:11;;;;;;;3.73;2.87;;;;;;;28.47;44.55;100723.14;1767528;79;21027;-73
2021/06/17 11:05:52;;;;;;;6.53;2.83;;;;;;;28.57;44.13;100716.98;1771616;79;21205;-74
2021/06/17 11:08:23;;;;;;;6.80;2.90;;;;;;;28.64;43.19;100719.80;1775862;78;21081;-71
2021/06/17 11:11:06;;;;;;;5.43;3.40;;;;;;;28.67;43.12;100724.55;1780379;78;21097;-72
2021/06/17 11:13:42;;;;;;;4.50;2.80;;;;;;;28.73;43.01;100715.38;1784647;78;21187;-72
2021/06/17 11:16:17;;;;;;;3.80;2.50;;;;;;;28.77;41.95;100709.33;1740949;79;21029;-74
2021/06/17 11:19:13;;;;;;;4.27;3.20;;;;;;;28.83;41.94;100720.20;1782373;78;21075;-72
2021/06/17 11:21:36;;;;;;;3.80;2.93;;;;;;;28.81;41.86;100712.11;1737882;79;21034;-74
2021/06/17 11:24:19;;;;;;;;;;;;;;;28.81;42.18;100708.78;1770790;78;21090;-73
2021/06/17 11:26:52;;;;;;;4.63;2.90;;;;;;;28.89;42.13;100704.95;1764940;79;21056;-73
2021/06/17 11:29:36;;;;;;;5.07;3.07;;;;;;;29.06;43.09;100709.06;1775038;80;21062;-73
2021/06/17 11:32:26;;;;;;;6.33;3.00;;;;;;;29.21;41.61;100715.45;1777426;79;21030;-72
2021/06/17 11:34:53;;;;;;;4.53;2.77;;;;;;;29.07;41.61;100695.50;1759061;80;21237;-74
2021/06/17 11:37:19;;;;;;;4.80;2.90;;;;;;;28.79;41.04;100701.48;1779721;78;21073;-74
2021/06/17 11:39:48;;;;;;;5.90;2.83;;;;;;;28.67;42.21;100712.77;1783120;78;21105;-73
2021/06/17 11:42:21;;;;;;;3.50;2.67;;;;;;;28.65;41.07;100721.37;1779054;78;21114;-73